Time;durP1;ratioP1;P1;durP2;ratioP2;P2;SDS_P1;SDS_P2;PMS_P1;PMS_P2;Temp;Humidity;BMP_temperature;BMP_pressure;BME280_temperature;BME280_humidity;BME280_pressure;Samples;Min_cycle;Max_cycle;Signal;HPM_P1;HPM_P2
2023/05/21 00:02:10;;;;;;;6.18;3.20;;;;;;;19.55;44.96;98488.75;4923585;29;20406;-75
2023/05/21 00:04:42;;;;;;;;;;;;;;;19.56;45.03;98493.06;4940790;29;20042;-76
2023/05/21 00:07:07;;;;;;;7.55;3.33;;;;;;;19.50;45.15;98475.25;4939911;29;19914;-77
2023/05/21 00:09:33;;;;;;;6.45;3.22;;;;;;;19.51;44.98;98477.72;4924064;29;20498;-76
2023/05/21 00:11:59;;;;;;;7.63;3.72;;;;;;;19.44;45.31;98470.66;4957221;29;20031;-77
2023/05/21 00:14:24;;;;;;;10.95;3.50;;;;;;;19.38;45.19;98466.91;4939689;29;20641;-77
2023/05/21 00:16:50;;;;;;;6.18;3.65;;;;;;;19.32;45.10;98465.81;4957038;29;20038;-78
2023/05/21 00:19:15;;;;;;;8.27;3.50;;;;;;;19.26;45.23;98460.41;4924052;29;20043;-77
2023/05/21 00:21:41;;;;;;;9.27;3.28;;;;;;;19.24;45.15;98452.66;4923430;29;20051;-77
2023/05/21 00:24:06;;;;;;;6.50;3.15;;;;;;;19.26;45.15;98457.75;4923677;29;20408;-77
2023/05/21 00:26:32;;;;;;;4.85;3.05;;;;;;;19.24;45.33;98451.84;4940344;29;20170;-76
2023/05/21 00:28:57;;;;;;;8.93;3.67;;;;;;;19.24;45.43;98465.06;4939531;29;20043;-76
2023/05/21 00:31:22;;;;;;;7.72;3.28;;;;;;;19.24;45.47;98454.47;4939571;29;20094;-76
2023/05/21 00:33:48;;;;;;;4.95;3.35;;;;;;;19.23;45.36;98445.72;4938977;29;20487;-76
2023/05/21 00:36:13;;;;;;;11.32;3.50;;;;;;;19.18;45.56;98445.41;4923583;29;20047;-77
2023/05/21 00:38:42;;;;;;;6.07;3.08;;;;;;;19.21;45.53;98441.59;4908090;29;20043;-77
2023/05/21 00:41:09;;;;;;;9.38;3.53;;;;;;;19.23;45.48;98445.72;4923897;29;20426;-77
2023/05/21 00:43:34;;;;;;;7.78;3.45;;;;;;;19.25;45.47;98456.94;4938549;29;20035;-75
2023/05/21 00:46:00;;;;;;;6.90;3.72;;;;;;;19.26;45.13;98445.38;4923399;29;20046;-76
2023/05/21 00:48:25;;;;;;;11.45;3.25;;;;;;;19.26;45.35;98442.72;4922881;29;20046;-76
2023/05/21 00:50:51;;;;;;;7.50;3.70;;;;;;;19.27;45.26;98432.94;4907125;29;20039;-75
2023/05/21 00:53:18;;;;;;;8.23;3.97;;;;;;;19.27;45.21;98422.38;4920758;29;20039;-75
2023/05/21 00:55:44;;;;;;;5.50;3.22;;;;;;;19.26;45.28;98433.94;4922261;28;20512;-75
2023/05/21 00:58:10;;;;;;;7.22;3.42;;;;;;;19.27;45.14;98425.81;4955405;29;20475;-76
2023/05/21 01:00:36;;;;;;;6.38;3.28;;;;;;;19.24;45.17;98422.72;4907576;29;20058;-75
2023/05/21 01:03:02;;;;;;;11.52;3.53;;;;;;;19.26;45.09;98424.19;4938952;29;20039;-76
2023/05/21 01:05:27;;;;;;;12.68;3.47;;;;;;;19.26;45.05;98426.84;4922842;29;20082;-75
2023/05/21 01:07:53;;;;;;;6.43;3.25;;;;;;;19.32;44.95;98423.47;4939133;29;20050;-75
2023/05/21 01:10:18;;;;;;;5.85;3.22;;;;;;;19.34;45.10;98426.75;4938715;29;20566;-76
2023/05/21 01:12:44;;;;;;;5.13;3.42;;;;;;;19.31;44.72;98410.44;4955656;29;20051;-75
2023/05/21 01:15:10;;;;;;;7.90;3.42;;;;;;;19.36;44.83;98417.81;4906938;29;20122;-75
2023/05/21 01:17:35;;;;;;;7.28;3.38;;;;;;;19.38;44.97;98405.22;4938547;29;20178;-77
2023/05/21 01:20:07;;;;;;;8.27;3.50;;;;;;;19.39;44.46;98412.97;4922680;28;20164;-76
2023/05/21 01:22:33;;;;;;;9.70;3.30;;;;;;;19.39;44.62;98412.97;4923073;29;20046;-76
2023/05/21 01:25:01;;;;;;;9.50;3.45;;;;;;;19.39;44.42;98414.78;4922489;29;20031;-77
2023/05/21 01:27:27;;;;;;;7.80;3.40;;;;;;;19.37;44.44;98400.94;4955458;29;20039;-76
2023/05/21 01:29:52;;;;;;;5.38;3.30;;;;;;;19.37;44.36;98414.16;4922560;29;20553;-76
2023/05/21 01:32:30;;;;;;;7.45;3.35;;;;;;;19.40;44.33;98408.50;4938224;29;20043;-77
2023/05/21 01:35:01;;;;;;;7.28;3.15;;;;;;;19.41;44.26;98412.81;4954198;29;20463;-75
2023/05/21 01:37:27;;;;;;;6.45;3.13;;;;;;;19.45;44.17;98414.06;4922579;29;20039;-75
2023/05/21 01:39:57;;;;;;;11.18;3.38;;;;;;;19.48;43.99;98417.19;4955292;29;20039;-75
2023/05/21 01:42:23;;;;;;;6.82;3.03;;;;;;;19.47;43.99;98409.44;4954056;29;20114;-75
2023/05/21 01:44:50;;;;;;;7.22;3.17;;;;;;;19.46;44.04;98408.59;4938070;29;20475;-75
2023/05/21 01:47:16;;;;;;;6.15;3.40;;;;;;;19.46;43.88;98403.28;4938545;29;20487;-76
2023/05/21 01:49:41;;;;;;;6.15;3.55;;;;;;;19.44;43.87;98402.66;4921540;29;20047;-75
2023/05/21 01:52:07;;;;;;;9.18;3.08;;;;;;;19.43;43.70;98405.50;4937886;29;20203;-76
2023/05/21 01:54:32;;;;;;;7.38;3.35;;;;;;;19.42;43.79;98401.19;4937944;29;20031;-78
2023/05/21 01:56:58;;;;;;;4.85;2.83;;;;;;;19.38;43.92;98394.63;4937390;29;20054;-78
2023/05/21 01:59:24;;;;;;;8.13;2.85;;;;;;;19.40;43.48;98406.66;4937940;29;20031;-78
2023/05/21 02:01:49;;;;;;;10.25;3.40;;;;;;;19.36;43.84;98400.13;4921482;29;20043;-77
2023/05/21 02:04:15;;;;;;;6.53;3.35;;;;;;;19.34;43.93;98394.19;4955013;29;20056;-78
2023/05/21 02:06:40;;;;;;;11.88;3.53;;;;;;;19.37;43.71;98404.41;4921501;29;20098;-77
2023/05/21 02:09:06;;;;;;;7.93;3.13;;;;;;;19.36;43.67;98405.41;4936489;29;20498;-78
2023/05/21 02:11:32;;;;;;;5.32;3.08;;;;;;;19.36;43.68;98399.31;4954824;29;20042;-77
2023/05/21 02:13:58;;;;;;;11.00;2.80;;;;;;;19.35;43.68;98395.81;4936729;29;20039;-77
2023/05/21 02:16:24;;;;;;;9.05;3.40;;;;;;;19.37;43.68;98393.00;4954392;29;20109;-78
2023/05/21 02:18:56;;;;;;;8.68;3.20;;;;;;;19.34;43.57;98394.19;4922161;29;20423;-78
2023/05/21 02:21:21;;;;;;;4.65;3.05;;;;;;;19.30;43.75;98399.00;4954557;29;20115;-76
2023/05/21 02:23:47;;;;;;;5.35;3.22;;;;;;;19.30;43.71;98393.72;4937385;29;20522;-75
2023/05/21 02:26:12;;;;;;;11.20;3.30;;;;;;;19.23;43.69;98390.16;4920980;29;20415;-77
2023/05/21 02:28:39;;;;;;;11.43;3.13;;;;;;;19.23;43.54;98406.03;4937172;29;20031;-78
2023/05/21 02:31:04;;;;;;;5.90;3.08;;;;;;;19.23;43.77;98408.69;4922070;29;20147;-76
2023/05/21 02:33:30;;;;;;;6.72;3.10;;;;;;;19.18;43.75;98400.44;4954445;29;20191;-77
2023/05/21 02:35:55;;;;;;;7.65;3.15;;;;;;;19.22;43.50;98414.97;4937596;29;20077;-78
2023/05/21 02:38:21;;;;;;;9.70;3.30;;;;;;;19.21;43.69;98408.03;4937400;29;20114;-77
2023/05/21 02:40:49;;;;;;;6.68;3.38;;;;;;;19.20;43.69;98398.47;4937241;29;20050;-77
2023/05/21 02:43:15;;;;;;;7.38;2.95;;;;;;;19.23;43.56;98400.75;4954439;28;20095;-78
2023/05/21 02:45:41;;;;;;;6.03;2.97;;;;;;;19.29;43.58;98405.31;4937115;29;20043;-77
2023/05/21 02:48:06;;;;;;;7.13;3.30;;;;;;;19.27;43.44;98386.13;4954230;28;20043;-77
2023/05/21 02:50:32;;;;;;;10.98;3.20;;;;;;;19.32;43.68;98401.47;4921281;29;20050;-77
2023/05/21 02:52:58;;;;;;;10.32;3.00;;;;;;;19.31;43.56;98383.97;4954482;29;20046;-83
2023/05/21 02:55:24;;;;;;;7.45;3.03;;;;;;;19.33;43.33;98397.81;4905383;29;20098;-77
2023/05/21 02:57:50;;;;;;;6.78;3.08;;;;;;;19.33;43.38;98381.94;4951719;29;20039;-78
2023/05/21 03:00:16;;;;;;;6.53;3.20;;;;;;;19.26;43.24;98384.50;4935805;29;20053;-77
2023/05/21 03:02:41;;;;;;;9.65;3.67;;;;;;;19.26;43.61;98384.50;4936899;29;20110;-76
2023/05/21 03:05:07;;;;;;;8.70;3.35;;;;;;;19.23;43.38;98384.88;4921633;29;20487;-76
2023/05/21 03:07:32;;;;;;;4.28;2.90;;;;;;;19.22;43.44;98393.81;4921686;29;20110;-75
2023/05/21 03:09:58;;;;;;;7.20;3.10;;;;;;;19.26;43.37;98394.25;4936936;29;20078;-75
2023/05/21 03:12:23;;;;;;;6.55;2.83;;;;;;;19.24;43.36;98397.06;4920586;29;20106;-75
2023/05/21 03:14:50;;;;;;;8.65;3.30;;;;;;;19.24;43.41;98394.44;4953719;29;20043;-75
2023/05/21 03:17:16;;;;;;;9.55;3.45;;;;;;;19.25;43.47;98390.78;4937170;29;20046;-76
2023/05/21 03:19:42;;;;;;;12.27;3.33;;;;;;;19.24;43.39;98383.84;4922385;29;20414;-75
2023/05/21 03:22:08;;;;;;;6.40;3.17;;;;;;;19.26;43.46;98403.03;4924796;29;20035;-76
2023/05/21 03:24:34;;;;;;;8.38;2.92;;;;;;;19.20;43.33;98372.00;4925225;29;20086;-77
2023/05/21 03:27:05;;;;;;;6.35;3.17;;;;;;;19.31;43.43;98398.00;4957627;28;20415;-77
2023/05/21 03:29:30;;;;;;;6.68;3.10;;;;;;;19.36;43.16;98399.31;4926030;29;20463;-78
2023/05/21 03:31:56;;;;;;;10.20;3.22;;;;;;;19.38;43.23;98394.63;4940752;29;20039;-78
2023/05/21 03:34:22;;;;;;;6.18;3.35;;;;;;;19.44;43.20;98391.28;4940595;29;20039;-77
2023/05/21 03:36:48;;;;;;;5.18;3.03;;;;;;;19.76;42.41;98397.19;4908460;29;20102;-78
2023/05/21 03:39:14;;;;;;;7.40;3.80;;;;;;;19.96;42.04;98403.56;4957831;29;20051;-77
2023/05/21 03:41:39;;;;;;;9.75;3.10;;;;;;;20.06;41.80;98396.13;4939314;29;20035;-76
2023/05/21 03:44:05;;;;;;;11.30;3.38;;;;;;;20.07;41.82;98396.97;4940417;29;20040;-76
2023/05/21 03:46:30;;;;;;;6.63;3.20;;;;;;;20.12;41.59;98399.88;4940513;29;20039;-76
2023/05/21 03:48:57;;;;;;;6.22;3.05;;;;;;;20.23;41.42;98393.28;4957414;29;20075;-76
2023/05/21 03:51:23;;;;;;;8.18;3.28;;;;;;;20.42;40.95;98390.00;4923724;29;20054;-77
2023/05/21 03:53:49;;;;;;;4.57;2.63;;;;;;;20.71;40.41;98392.75;4923687;29;20044;-76
2023/05/21 03:56:15;;;;;;;13.80;3.30;;;;;;;20.99;39.90;98392.78;4924302;29;20039;-77
2023/05/21 03:58:40;;;;;;;7.43;3.25;;;;;;;20.88;40.20;98402.06;4957095;28;20039;-75
2023/05/21 04:01:07;;;;;;;6.47;3.03;;;;;;;20.82;40.09;98389.56;4939876;29;20498;-77
2023/05/21 04:03:34;;;;;;;7.72;3.33;;;;;;;20.81;40.20;98395.06;4924352;29;20047;-76
2023/05/21 04:06:00;;;;;;;5.53;2.92;;;;;;;20.78;40.13;98391.78;4956950;29;20057;-77
2023/05/21 04:08:26;;;;;;;10.43;3.17;;;;;;;20.74;40.14;98392.38;4939123;29;20110;-76
2023/05/21 04:10:51;;;;;;;8.73;3.53;;;;;;;20.71;40.18;98395.41;4956780;28;20035;-76
2023/05/21 04:13:17;;;;;;;9.60;3.05;;;;;;;20.71;40.25;98403.34;4956599;29;20051;-76
2023/05/21 04:15:43;;;;;;;8.10;2.97;;;;;;;20.73;40.27;98398.69;4939057;29;20455;-77
2023/05/21 04:18:09;;;;;;;5.13;2.95;;;;;;;20.75;40.25;98388.72;4923082;29;20047;-77
2023/05/21 04:20:35;;;;;;;8.85;2.97;;;;;;;20.94;39.90;98395.19;4907406;29;20051;-76
2023/05/21 04:23:01;;;;;;;8.75;3.20;;;;;;;21.53;38.56;98395.81;4923740;29;20403;-77
2023/05/21 04:25:27;;;;;;;5.82;2.90;;;;;;;21.39;39.17;98402.84;4939321;29;20426;-76
2023/05/21 04:27:53;;;;;;;7.03;2.95;;;;;;;21.31;39.18;98398.50;4923692;29;20035;-77
2023/05/21 04:30:19;;;;;;;4.97;3.10;;;;;;;21.30;39.21;98415.44;4922853;28;20054;-77
2023/05/21 04:32:44;;;;;;;5.00;2.95;;;;;;;21.31;38.99;98407.28;4938806;29;20039;-76
2023/05/21 04:35:10;;;;;;;7.57;3.13;;;;;;;21.27;39.04;98411.34;4939448;29;20035;-77
2023/05/21 04:37:40;;;;;;;4.10;2.90;;;;;;;21.27;39.15;98413.19;4938705;29;20043;-76
2023/05/21 04:40:08;;;;;;;5.03;2.85;;;;;;;21.36;39.13;98414.66;4939871;28;20518;-77
2023/05/21 04:42:34;;;;;;;6.57;3.20;;;;;;;21.50;38.97;98413.75;4939073;29;20031;-76
2023/05/21 04:45:00;;;;;;;5.75;3.20;;;;;;;21.89;38.21;98408.88;4923409;29;20058;-77
2023/05/21 04:47:25;;;;;;;8.35;3.33;;;;;;;21.86;38.28;98410.06;4922951;29;20479;-77
2023/05/21 04:49:52;;;;;;;4.75;3.13;;;;;;;21.95;37.79;98424.03;4938812;29;20392;-77
2023/05/21 04:52:17;;;;;;;6.57;3.22;;;;;;;21.95;38.05;98424.03;4939028;29;20106;-77
2023/05/21 04:54:44;;;;;;;6.03;3.17;;;;;;;22.05;37.73;98421.78;4922782;28;20047;-76
2023/05/21 04:57:10;;;;;;;7.32;2.97;;;;;;;22.34;37.37;98421.72;4937201;29;20091;-77
2023/05/21 04:59:35;;;;;;;7.35;3.17;;;;;;;22.48;37.33;98431.34;4919367;29;20505;-76
2023/05/21 05:02:01;;;;;;;5.57;3.03;;;;;;;22.39;37.36;98429.91;4921703;29;20047;-77
2023/05/21 05:04:27;;;;;;;4.80;2.88;;;;;;;22.39;37.27;98437.88;4945207;29;20407;-76
2023/05/21 05:06:52;;;;;;;6.63;3.03;;;;;;;22.35;37.46;98442.78;4953417;29;20039;-77
2023/05/21 05:09:20;;;;;;;8.38;3.05;;;;;;;22.29;37.61;98438.22;4936134;29;20082;-77
2023/05/21 05:11:45;;;;;;;5.97;2.95;;;;;;;22.26;37.60;98437.81;4938096;29;20077;-78
2023/05/21 05:14:11;;;;;;;6.32;2.97;;;;;;;22.23;37.93;98442.53;4922357;29;20124;-77
2023/05/21 05:16:36;;;;;;;4.63;2.97;;;;;;;22.23;37.61;98445.19;4938225;29;20511;-78
2023/05/21 05:19:02;;;;;;;9.70;2.83;;;;;;;22.22;37.62;98445.38;4922374;29;20052;-77
2023/05/21 05:21:27;;;;;;;6.90;2.75;;;;;;;22.20;38.08;98442.94;4937727;29;20051;-77
2023/05/21 05:23:53;;;;;;;7.70;3.75;;;;;;;22.23;37.97;98439.88;4938268;29;20073;-77
2023/05/21 05:26:18;;;;;;;10.57;4.35;;;;;;;22.27;38.01;98445.59;4955301;29;20047;-77
2023/05/21 05:28:45;;;;;;;11.52;5.28;;;;;;;22.31;38.14;98446.03;4938275;29;20046;-76
2023/05/21 05:31:10;;;;;;;10.73;5.32;;;;;;;22.39;38.05;98449.34;4955162;28;20039;-77
2023/05/21 05:33:36;;;;;;;10.50;4.75;;;;;;;22.50;37.58;98449.78;4955041;28;20050;-78
2023/05/21 05:36:01;;;;;;;9.23;5.05;;;;;;;22.64;37.99;98445.31;4938059;29;20126;-78
2023/05/21 05:38:27;;;;;;;12.65;5.40;;;;;;;22.97;37.33;98453.31;4937931;29;20039;-77
2023/05/21 05:40:52;;;;;;;10.80;4.78;;;;;;;23.21;36.92;98453.78;4922383;29;20036;-75
2023/05/21 05:43:18;;;;;;;10.27;4.90;;;;;;;23.57;36.52;98455.16;4941724;29;20039;-85
2023/05/21 05:45:43;;;;;;;8.95;4.47;;;;;;;24.06;35.68;98447.69;4940967;29;20043;-75
2023/05/21 05:48:09;;;;;;;6.68;3.83;;;;;;;24.35;40.43;98449.81;4954868;29;20380;-73
2023/05/21 05:50:34;;;;;;;12.85;3.83;;;;;;;24.76;40.90;98441.56;4921820;29;20047;-72
2023/05/21 05:53:00;;;;;;;15.00;3.50;;;;;;;25.85;37.91;98449.25;4954784;29;20039;-74
2023/05/21 05:55:25;;;;;;;9.93;3.40;;;;;;;26.79;36.29;98452.38;4954843;29;20046;-74
2023/05/21 05:57:51;;;;;;;14.07;3.35;;;;;;;26.84;36.23;98452.50;4922103;29;20042;-72
2023/05/21 06:00:17;;;;;;;6.43;3.35;;;;;;;27.00;36.00;98450.22;4937753;29;20043;-73
2023/05/21 06:02:42;;;;;;;9.82;3.47;;;;;;;26.92;35.51;98437.97;4937191;29;20057;-72
2023/05/21 06:05:08;;;;;;;11.93;4.10;;;;;;;26.91;35.94;98449.72;4921506;29;20043;-72
2023/05/21 06:07:35;;;;;;;9.95;4.50;;;;;;;26.89;36.10;98451.81;4954528;29;20090;-73
2023/05/21 06:10:01;;;;;;;11.30;6.33;;;;;;;26.88;35.35;98450.16;4937442;29;20043;-71
2023/05/21 06:12:26;;;;;;;11.07;5.30;;;;;;;26.96;35.82;98457.88;4936923;29;20054;-72
2023/05/21 06:14:52;;;;;;;12.75;4.78;;;;;;;26.95;35.54;98455.44;4937474;29;20542;-70
2023/05/21 06:17:17;;;;;;;10.23;4.18;;;;;;;26.85;35.52;98455.97;4921269;29;20040;-70
2023/05/21 06:19:44;;;;;;;7.75;4.32;;;;;;;26.68;35.22;98445.16;4940220;29;20058;-84
2023/05/21 06:22:09;;;;;;;10.25;4.82;;;;;;;26.56;34.53;98441.59;4924123;29;20035;-83
2023/05/21 06:24:35;;;;;;;15.90;5.90;;;;;;;26.40;33.63;98445.72;4921891;29;20471;-77
2023/05/21 06:27:00;;;;;;;13.20;6.43;;;;;;;26.33;33.50;98443.13;4937265;29;20114;-78
2023/05/21 06:29:26;;;;;;;13.50;6.82;;;;;;;26.25;33.28;98433.56;4905974;29;20089;-78
2023/05/21 06:31:51;;;;;;;10.38;5.22;;;;;;;26.15;32.74;98447.44;4905782;29;20058;-79
2023/05/21 06:34:17;;;;;;;8.05;4.82;;;;;;;26.10;32.82;98444.63;4954283;29;20054;-79
2023/05/21 06:36:42;;;;;;;9.40;4.63;;;;;;;26.03;33.31;98435.91;4939910;29;20039;-78
2023/05/21 06:39:08;;;;;;;17.60;11.23;;;;;;;26.03;33.16;98438.56;4905593;29;20094;-79
2023/05/21 06:41:33;;;;;;;19.17;15.27;;;;;;;26.04;33.40;98439.38;4936656;29;20035;-79
2023/05/21 06:43:59;;;;;;;21.23;16.95;;;;;;;26.04;33.31;98437.50;4923435;29;20171;-91
2023/05/21 06:46:24;;;;;;;20.10;12.68;;;;;;;26.13;32.99;98449.53;4908373;29;20126;-83
2023/05/21 06:48:52;;;;;;;20.88;10.52;;;;;;;26.12;32.74;98447.91;4939331;29;20046;-86
2023/05/21 06:51:18;;;;;;;20.98;14.52;;;;;;;26.07;33.27;98445.09;4954995;29;20039;-80
2023/05/21 06:53:43;;;;;;;14.80;11.75;;;;;;;26.03;33.39;98448.44;4938103;29;20105;-82
2023/05/21 06:56:09;;;;;;;15.63;13.40;;;;;;;26.04;33.08;98447.41;4960370;28;20407;-78
2023/05/21 06:58:34;;;;;;;17.05;11.23;;;;;;;26.04;33.38;98440.19;4943362;29;20046;-80
2023/05/21 07:01:00;;;;;;;19.70;11.13;;;;;;;26.06;33.40;98438.13;4944124;29;20031;-79
2023/05/21 07:03:26;;;;;;;16.40;10.02;;;;;;;26.07;33.48;98444.28;4960352;28;20043;-78
2023/05/21 07:05:52;;;;;;;9.35;5.30;;;;;;;26.01;34.98;98440.63;4946942;28;20069;-78
2023/05/21 07:08:19;;;;;;;10.80;4.18;;;;;;;25.98;34.65;98451.78;4926975;29;20055;-76
2023/05/21 07:10:45;;;;;;;11.63;4.60;;;;;;;25.83;34.93;98438.78;4926634;28;20395;-76
2023/05/21 07:13:13;;;;;;;16.17;4.40;;;;;;;25.81;34.09;98447.00;4924193;29;20134;-80
2023/05/21 07:15:38;;;;;;;21.67;3.38;;;;;;;25.82;31.49;98437.97;4907636;29;20047;-75
2023/05/21 07:18:04;;;;;;;9.63;3.72;;;;;;;25.94;30.27;98440.69;4891674;29;20052;-78
2023/05/21 07:20:29;;;;;;;10.88;3.53;;;;;;;26.16;29.14;98437.59;4939864;29;20486;-78
2023/05/21 07:22:55;;;;;;;9.65;3.30;;;;;;;26.34;28.31;98431.38;4923540;29;20036;-78
2023/05/21 07:25:21;;;;;;;11.63;3.15;;;;;;;26.40;27.96;98422.44;4922878;29;20107;-80
2023/05/21 07:27:46;;;;;;;16.75;6.53;;;;;;;26.45;27.68;98422.56;4907440;29;20066;-79
2023/05/21 07:30:13;;;;;;;13.52;7.93;;;;;;;26.48;27.48;98421.31;4907149;29;20105;-79
2023/05/21 07:32:38;;;;;;;18.40;12.57;;;;;;;26.47;27.55;98419.66;4907831;29;20046;-77
2023/05/21 07:35:04;;;;;;;15.30;9.18;;;;;;;26.49;27.17;98426.44;4891481;29;20036;-73
2023/05/21 07:37:30;;;;;;;9.20;6.60;;;;;;;26.58;26.55;98418.88;4923234;29;20042;-81
2023/05/21 07:39:57;;;;;;;14.60;5.78;;;;;;;26.67;26.19;98422.09;4907480;29;20415;-77
2023/05/21 07:42:23;;;;;;;14.48;4.78;;;;;;;26.93;25.73;98420.88;4891280;29;20039;-79
2023/05/21 07:44:48;;;;;;;13.60;5.20;;;;;;;27.13;25.46;98423.19;4907522;29;20044;-68
2023/05/21 07:47:14;;;;;;;7.40;3.75;;;;;;;27.52;24.55;98417.41;4924379;29;20044;-81
2023/05/21 07:49:39;;;;;;;10.80;3.50;;;;;;;28.08;23.92;98423.91;4916314;29;20044;-75
2023/05/21 07:52:05;;;;;;;5.80;3.22;;;;;;;28.03;24.46;98421.16;4939923;29;20064;-76
2023/05/21 07:54:31;;;;;;;8.35;3.03;;;;;;;28.35;23.32;98420.66;4907309;29;20039;-73
2023/05/21 07:56:56;;;;;;;7.82;2.97;;;;;;;28.32;23.30;98413.94;4939730;29;20043;-75
2023/05/21 07:59:22;;;;;;;17.00;3.58;;;;;;;28.37;26.70;98417.75;4907136;29;20086;-76
2023/05/21 08:01:48;;;;;;;10.63;3.50;;;;;;;28.29;28.66;98421.63;4923067;29;20043;-73
2023/05/21 08:04:13;;;;;;;13.10;3.67;;;;;;;28.11;30.26;98425.31;4922399;29;20039;-72
2023/05/21 08:06:39;;;;;;;16.70;2.95;;;;;;;28.05;26.30;98421.72;4920593;29;20047;-74
2023/05/21 08:09:05;;;;;;;12.10;2.88;;;;;;;27.96;24.73;98429.34;4919644;29;20071;-73
2023/05/21 08:11:31;;;;;;;14.63;2.67;;;;;;;27.79;24.85;98431.09;4936689;29;20039;-74
2023/05/21 08:13:56;;;;;;;9.23;2.78;;;;;;;27.63;27.29;98435.31;4922760;29;20094;-72
2023/05/21 08:16:22;;;;;;;13.15;2.85;;;;;;;27.48;28.09;98433.13;4922141;29;20079;-72
2023/05/21 08:18:48;;;;;;;4.53;3.10;;;;;;;27.48;30.05;98429.63;4906677;28;20046;-72
2023/05/21 08:21:14;;;;;;;7.43;3.00;;;;;;;27.74;30.43;98436.38;4906840;29;20059;-76
2023/05/21 08:23:39;;;;;;;5.97;2.60;;;;;;;27.61;28.63;98438.25;4922684;29;20042;-76
2023/05/21 08:26:05;;;;;;;6.13;2.80;;;;;;;27.80;28.07;98435.44;4938775;29;20050;-78
2023/05/21 08:28:31;;;;;;;6.95;2.90;;;;;;;28.20;28.46;98423.91;4938771;29;20039;-77
2023/05/21 08:30:56;;;;;;;12.93;2.90;;;;;;;28.67;26.53;98425.53;4922067;29;20421;-81
2023/05/21 08:33:22;;;;;;;13.90;3.25;;;;;;;28.59;26.88;98425.94;4938577;29;20039;-73
2023/05/21 08:35:48;;;;;;;13.15;3.38;;;;;;;29.30;27.42;98428.19;4955854;29;20058;-78
2023/05/21 08:38:15;;;;;;;13.20;3.35;;;;;;;29.84;27.77;98430.28;4907076;29;20509;-75
2023/05/21 08:40:41;;;;;;;15.30;3.15;;;;;;;30.15;25.77;98430.66;4938822;29;20035;-76
2023/05/21 08:43:11;;;;;;;6.47;2.90;;;;;;;30.31;26.47;98435.94;4924384;29;20481;-78
2023/05/21 08:45:39;;;;;;;10.60;3.10;;;;;;;30.30;26.18;98446.97;4939156;29;20113;-72
2023/05/21 08:48:04;;;;;;;7.30;2.88;;;;;;;30.85;25.03;98439.69;4922589;29;20063;-71
2023/05/21 08:50:30;;;;;;;11.63;2.92;;;;;;;30.42;26.21;98436.88;4922287;29;20482;-73
2023/05/21 08:52:57;;;;;;;7.35;2.70;;;;;;;30.31;24.09;98433.25;4921783;29;20133;-73
2023/05/21 08:55:23;;;;;;;13.07;2.97;;;;;;;30.47;23.58;98444.19;4922823;29;20043;-73
2023/05/21 08:57:49;;;;;;;5.70;2.72;;;;;;;30.57;24.53;98443.47;4938082;29;20038;-72
2023/05/21 09:00:15;;;;;;;14.52;2.80;;;;;;;30.31;25.80;98438.63;4937700;29;20094;-76
2023/05/21 09:02:43;;;;;;;9.60;3.00;;;;;;;29.95;25.83;98440.91;4937551;29;20448;-74
2023/05/21 09:05:08;;;;;;;7.70;2.60;;;;;;;29.97;25.25;98443.38;4938340;29;20047;-73
2023/05/21 09:08:04;;;;;;;9.52;2.90;;;;;;;30.01;26.29;98435.59;4921704;29;20508;-73
2023/05/21 09:10:40;;;;;;;9.85;2.65;;;;;;;30.52;25.53;98448.81;4876836;29;20121;-78
2023/05/21 09:13:06;;;;;;;7.65;2.60;;;;;;;30.53;26.08;98453.16;4858487;29;20046;-78
2023/05/21 09:15:32;;;;;;;7.72;2.60;;;;;;;30.22;25.87;98448.22;4843108;29;20102;-73
2023/05/21 09:17:57;;;;;;;7.78;2.85;;;;;;;30.61;26.01;98447.28;4827691;29;20061;-73
2023/05/21 09:20:24;;;;;;;9.18;2.60;;;;;;;30.63;23.86;98447.84;4841892;29;20457;-75
2023/05/21 09:22:50;;;;;;;7.65;2.60;;;;;;;30.13;26.02;98439.78;4842790;29;20046;-73
2023/05/21 09:25:17;;;;;;;11.35;3.03;;;;;;;29.75;27.75;98443.31;4858232;29;20081;-74
2023/05/21 09:27:42;;;;;;;10.63;2.93;;;;;;;29.20;27.85;98443.09;4842662;29;20054;-74
2023/05/21 09:30:09;;;;;;;4.70;2.97;;;;;;;28.78;29.27;98451.53;4842764;29;20281;-74
2023/05/21 09:32:35;;;;;;;6.72;3.00;;;;;;;28.72;29.66;98449.81;4858474;29;20049;-75
2023/05/21 09:35:11;;;;;;;9.32;3.30;;;;;;;28.65;29.40;98459.88;4842760;29;20501;-74
2023/05/21 09:37:37;;;;;;;4.78;2.78;;;;;;;28.55;29.29;98449.75;4842933;29;20045;-75
2023/05/21 09:40:10;;;;;;;6.53;2.72;;;;;;;27.99;30.65;98465.63;4842762;29;20502;-77
2023/05/21 09:42:40;;;;;;;9.38;3.17;;;;;;;27.77;30.99;98468.88;4842080;29;20136;-75
2023/05/21 09:45:07;;;;;;;7.30;2.75;;;;;;;27.76;30.77;98463.75;4843117;29;20069;-76
2023/05/21 09:47:33;;;;;;;9.68;3.00;;;;;;;27.67;31.56;98460.59;4891334;29;20048;-74
2023/05/21 09:49:59;;;;;;;8.65;2.72;;;;;;;27.82;31.80;98467.34;4916004;29;20036;-76
2023/05/21 09:52:26;;;;;;;10.90;3.10;;;;;;;27.82;32.22;98460.13;4915596;29;20040;-75
2023/05/21 09:54:52;;;;;;;7.85;3.33;;;;;;;27.79;32.26;98458.72;4899107;29;20178;-77
2023/05/21 09:57:26;;;;;;;9.68;2.70;;;;;;;27.88;32.61;98469.09;4914814;29;20032;-69
2023/05/21 09:59:52;;;;;;;8.80;2.70;;;;;;;27.97;33.56;98463.16;4915519;29;20046;-86
2023/05/21 10:02:21;;;;;;;12.07;2.80;;;;;;;28.14;31.94;98459.72;4903807;29;20047;-86
2023/05/21 10:04:48;;;;;;;11.70;3.15;;;;;;;28.11;31.91;98468.25;4904273;29;20040;-78
2023/05/21 10:07:18;;;;;;;14.13;3.80;;;;;;;28.07;31.52;98462.56;4916228;29;20040;-77
2023/05/21 10:09:45;;;;;;;17.92;4.63;;;;;;;28.02;31.57;98461.63;4899733;29;20086;-76
2023/05/21 10:12:11;;;;;;;16.92;4.32;;;;;;;27.90;31.96;98461.63;4900568;29;20036;-78
2023/05/21 10:14:36;;;;;;;7.60;3.75;;;;;;;27.72;31.21;98467.94;4914690;29;20047;-77
2023/05/21 10:17:03;;;;;;;10.48;3.15;;;;;;;27.71;31.31;98461.78;4898883;29;20502;-79
2023/05/21 10:19:29;;;;;;;7.15;3.03;;;;;;;27.55;30.04;98463.31;4898813;29;20052;-77
2023/05/21 10:21:55;;;;;;;10.18;3.00;;;;;;;27.59;30.71;98459.09;4913044;29;20435;-78
2023/05/21 10:24:21;;;;;;;18.67;3.20;;;;;;;27.52;30.88;98465.66;4915606;29;20564;-76
2023/05/21 10:26:47;;;;;;;10.73;3.25;;;;;;;27.38;30.47;98465.06;4915628;29;20044;-82
2023/05/21 10:29:12;;;;;;;11.75;3.00;;;;;;;27.33;30.07;98462.28;4896819;29;20386;-76
2023/05/21 10:31:39;;;;;;;9.73;2.58;;;;;;;27.26;29.45;98463.16;4914540;29;20400;-76
2023/05/21 10:34:07;;;;;;;6.15;2.42;;;;;;;27.30;28.96;98466.19;4913461;29;20071;-73
2023/05/21 10:36:32;;;;;;;7.05;2.30;;;;;;;27.33;28.60;98463.06;4913459;29;20469;-74
2023/05/21 10:38:59;;;;;;;7.20;2.63;;;;;;;27.44;28.06;98461.44;4897852;29;20047;-75
2023/05/21 10:41:24;;;;;;;14.52;2.72;;;;;;;27.53;27.93;98464.56;4930890;29;20036;-74
2023/05/21 10:44:24;;;;;;;10.88;2.47;;;;;;;27.71;27.72;98469.00;4914683;29;20047;-75
2023/05/21 10:47:28;;;;;;;5.55;2.38;;;;;;;27.47;26.72;98485.09;4916530;29;20111;-73
2023/05/21 10:50:02;;;;;;;11.25;2.35;;;;;;;27.42;26.14;98476.94;4912820;29;20060;-74
2023/05/21 10:52:50;;;;;;;10.80;2.30;;;;;;;27.36;25.65;98469.84;4899086;29;20508;-75
2023/05/21 10:55:33;;;;;;;6.35;2.20;;;;;;;27.29;25.67;98482.50;4916190;29;20428;-74
2023/05/21 10:58:19;;;;;;;7.00;2.35;;;;;;;27.35;25.98;98479.72;4914484;29;20051;-75
2023/05/21 11:00:44;;;;;;;4.63;2.55;;;;;;;27.40;26.50;98477.16;4929898;29;20037;-74
2023/05/21 11:03:11;;;;;;;4.68;2.55;;;;;;;27.59;26.11;98483.22;4914547;29;20119;-73
2023/05/21 11:06:00;;;;;;;9.75;2.50;;;;;;;27.47;26.28;98479.75;4914426;29;20655;-74
2023/05/21 11:08:27;;;;;;;8.82;2.60;;;;;;;27.37;26.62;98483.00;4927495;29;20055;-74
2023/05/21 11:10:59;;;;;;;4.20;2.40;;;;;;;27.31;27.11;98481.25;4914622;29;20094;-76
2023/05/21 11:13:25;;;;;;;8.93;2.63;;;;;;;27.22;27.32;98477.25;4915841;29;20084;-75
2023/05/21 11:15:57;;;;;;;4.63;2.25;;;;;;;27.24;27.42;98481.31;4914484;29;20070;-73
2023/05/21 11:18:43;;;;;;;7.72;2.60;;;;;;;27.18;27.70;98479.56;4914755;29;20411;-75
2023/05/21 11:21:20;;;;;;;9.02;2.60;;;;;;;27.25;27.80;98479.47;4920096;29;20062;-75
2023/05/21 11:23:56;;;;;;;6.70;2.60;;;;;;;27.20;27.93;98477.50;4904483;29;20047;-75
2023/05/21 11:26:23;;;;;;;8.70;2.40;;;;;;;27.19;28.54;98478.53;4920611;29;20035;-75
2023/05/21 11:29:04;;;;;;;9.18;3.00;;;;;;;27.07;28.96;98483.03;4937320;29;20046;-74
2023/05/21 11:31:37;;;;;;;14.00;3.00;;;;;;;26.90;28.93;98477.56;4954020;29;20035;-75